createdAt,value
2019-05-06T00:00:34.066Z,7.28
2019-05-06T00:01:33.971Z,7.24
2019-05-06T00:02:34.036Z,7.21
2019-05-06T00:03:34.323Z,7.1
2019-05-06T00:04:34.058Z,7.13
2019-05-06T00:05:47.933Z,7.17
2019-05-06T00:06:34.540Z,7.16
2019-05-06T00:08:34.424Z,6.99
2019-05-06T00:09:34.840Z,6.98
2019-05-06T00:10:34.110Z,6.95
2019-05-06T00:11:34.583Z,6.99
2019-05-06T00:12:33.617Z,6.98
2019-05-06T00:13:34.308Z,6.94
2019-05-06T00:14:33.930Z,6.97
2019-05-06T00:15:34.236Z,6.97
2019-05-06T00:16:34.619Z,6.99
2019-05-06T00:17:34.880Z,6.92
2019-05-06T00:18:34.119Z,6.85
2019-05-06T00:19:34.107Z,6.94
2019-05-06T00:20:48.192Z,6.91
2019-05-06T00:22:34.284Z,6.76
2019-05-06T00:23:35.311Z,6.73
2019-05-06T00:24:34.741Z,6.76
2019-05-06T00:25:34.821Z,6.76
2019-05-06T00:26:34.110Z,6.79
2019-05-06T00:27:34.196Z,6.74
2019-05-06T00:28:34.057Z,6.74
2019-05-06T00:29:34.894Z,6.76
2019-05-06T00:30:34.504Z,6.84
2019-05-06T00:31:34.504Z,6.71
2019-05-06T00:32:34.774Z,6.76
2019-05-06T00:33:34.168Z,6.73
2019-05-06T00:34:34.132Z,6.73
2019-05-06T00:35:34.217Z,6.76
2019-05-06T00:36:34.424Z,6.73
2019-05-06T00:37:34.864Z,6.71
2019-05-06T00:38:36.297Z,6.71
2019-05-06T00:39:36.044Z,6.64
2019-05-06T00:40:34.090Z,6.8
2019-05-06T00:41:36.220Z,6.8
2019-05-06T00:42:34.596Z,6.79
2019-05-06T00:43:34.465Z,6.87
2019-05-06T00:44:34.609Z,6.84
2019-05-06T00:45:36.502Z,6.81
2019-05-06T00:46:48.636Z,6.77
2019-05-06T00:47:36.338Z,6.81
2019-05-06T00:48:36.575Z,6.88
2019-05-06T00:49:34.494Z,6.98
2019-05-06T00:50:34.833Z,6.94
2019-05-06T00:51:36.147Z,6.97
2019-05-06T00:52:48.737Z,6.92
2019-05-06T00:54:36.453Z,6.95
2019-05-06T00:55:36.270Z,6.98
2019-05-06T00:56:36.328Z,6.91
2019-05-06T00:57:34.168Z,6.97
2019-05-06T00:58:34.718Z,6.95
2019-05-06T00:59:34.596Z,6.95
2019-05-06T01:00:36.154Z,7.07
2019-05-06T01:01:36.824Z,7.2
2019-05-06T01:02:36.611Z,7.16
2019-05-06T01:03:34.818Z,7.15
2019-05-06T01:04:36.393Z,7.21
2019-05-06T01:05:48.964Z,7.23
2019-05-06T01:07:36.820Z,7.25
2019-05-06T01:08:49.106Z,7.35
2019-05-06T01:09:36.698Z,7.35
2019-05-06T01:10:36.715Z,7.4
2019-05-06T01:11:34.640Z,7.53
2019-05-06T01:12:35.056Z,7.52
2019-05-06T01:13:35.073Z,7.5
2019-05-06T01:14:35.168Z,7.57
2019-05-06T01:15:36.748Z,7.57
2019-05-06T01:16:36.917Z,7.57
2019-05-06T01:18:36.398Z,7.55
2019-05-06T01:19:36.579Z,7.69
2019-05-06T01:20:49.211Z,7.55
2019-05-06T01:21:36.669Z,7.63
2019-05-06T01:22:36.545Z,7.61
2019-05-06T01:23:36.571Z,7.69
2019-05-06T01:24:49.275Z,7.53
2019-05-06T01:25:36.950Z,7.64
2019-05-06T01:26:36.189Z,7.68
2019-05-06T01:27:36.156Z,7.72
2019-05-06T01:29:37.191Z,7.68
2019-05-06T01:31:48.610Z,7.71
2019-05-06T01:32:36.904Z,7.72
2019-05-06T01:33:35.070Z,7.68
2019-05-06T01:34:36.423Z,7.82
2019-05-06T01:35:49.465Z,7.8
2019-05-06T01:36:36.842Z,7.71
2019-05-06T01:37:37.116Z,7.83
2019-05-06T01:38:36.421Z,7.87
2019-05-06T01:39:36.628Z,7.79
2019-05-06T01:40:49.547Z,7.74
2019-05-06T01:41:36.353Z,7.8
2019-05-06T01:42:36.873Z,7.79
2019-05-06T01:44:36.381Z,7.67
2019-05-06T01:45:37.271Z,7.79
2019-05-06T01:46:36.468Z,7.79
2019-05-06T01:47:36.983Z,7.74
2019-05-06T01:48:36.059Z,7.67
2019-05-06T01:49:36.460Z,7.79
2019-05-06T01:50:36.894Z,7.67
2019-05-06T01:51:37.125Z,7.69
2019-05-06T01:52:36.917Z,7.74
2019-05-06T01:53:36.308Z,7.67
2019-05-06T01:54:36.845Z,7.72
2019-05-06T01:55:49.803Z,7.68
2019-05-06T01:56:36.154Z,7.64
2019-05-06T01:57:36.234Z,7.61
2019-05-06T01:58:35.987Z,7.68
2019-05-06T01:59:36.581Z,7.71
2019-05-06T02:00:39.365Z,7.71
2019-05-06T02:02:36.821Z,7.67
2019-05-06T02:03:37.090Z,7.6
2019-05-06T02:04:36.207Z,7.61
2019-05-06T02:05:36.151Z,7.67
2019-05-06T02:06:49.993Z,7.58
2019-05-06T02:07:50.009Z,7.68
2019-05-06T02:08:36.148Z,7.49
2019-05-06T02:09:36.725Z,7.58
2019-05-06T02:10:38.235Z,7.48
2019-05-06T02:11:36.184Z,7.43
2019-05-06T02:12:36.664Z,7.45
2019-05-06T02:13:37.295Z,7.46
2019-05-06T02:14:36.638Z,7.39
2019-05-06T02:15:37.063Z,7.4
2019-05-06T02:16:36.781Z,7.32
2019-05-06T02:17:36.977Z,7.37
2019-05-06T02:18:36.387Z,7.31
2019-05-06T02:19:37.216Z,7.28
2019-05-06T02:20:36.456Z,7.25
2019-05-06T02:21:36.129Z,7.24
2019-05-06T02:22:37.018Z,7.15
2019-05-06T02:23:36.308Z,7.12
2019-05-06T02:24:36.214Z,7.15
2019-05-06T02:25:36.687Z,7.13
2019-05-06T02:26:36.783Z,7.15
2019-05-06T02:27:50.345Z,7.09
2019-05-06T02:28:36.899Z,7.15
2019-05-06T02:29:36.593Z,7.12
2019-05-06T02:30:39.003Z,6.99
2019-05-06T02:31:37.915Z,6.94
2019-05-06T02:32:38.406Z,6.94
2019-05-06T02:33:50.455Z,6.87
2019-05-06T02:34:38.804Z,6.91
2019-05-06T02:35:37.317Z,6.8
2019-05-06T02:36:36.917Z,6.74
2019-05-06T02:37:37.602Z,6.76
2019-05-06T02:38:55.611Z,6.7
2019-05-06T02:39:38.882Z,6.74
2019-05-06T02:40:38.125Z,6.76
2019-05-06T02:41:38.335Z,6.64
2019-05-06T02:42:38.578Z,6.62
2019-05-06T02:43:50.616Z,6.66
2019-05-06T02:44:38.550Z,6.59
2019-05-06T02:45:38.377Z,6.55
2019-05-06T02:46:38.717Z,6.56
2019-05-06T02:47:39.007Z,6.37
2019-05-06T02:48:54.255Z,6.46
2019-05-06T02:49:37.859Z,6.37
2019-05-06T02:50:38.774Z,6.36
2019-05-06T02:51:38.213Z,6.33
2019-05-06T02:52:37.813Z,6.34
2019-05-06T02:54:39.417Z,6.17
2019-05-06T02:55:42.803Z,6.19
2019-05-06T02:56:38.228Z,6.18
2019-05-06T02:57:38.342Z,6.21
2019-05-06T02:58:37.918Z,6.15
2019-05-06T02:59:50.883Z,6.21
2019-05-06T03:00:37.815Z,6.15
2019-05-06T03:01:38.890Z,6.14
2019-05-06T03:02:53.834Z,6.15
2019-05-06T03:03:38.679Z,6.04
2019-05-06T03:04:38.098Z,6.08
2019-05-06T03:05:53.335Z,6.08
2019-05-06T03:06:38.681Z,6
2019-05-06T03:07:43.109Z,6.15
2019-05-06T03:08:37.758Z,6.06
2019-05-06T03:09:38.848Z,6.09
2019-05-06T03:10:37.810Z,6.12
2019-05-06T03:11:38.043Z,6.03
2019-05-06T03:12:38.335Z,6.09
2019-05-06T03:13:38.876Z,5.97
2019-05-06T03:14:39.593Z,5.96
2019-05-06T03:15:53.614Z,5.94
2019-05-06T03:16:38.222Z,5.94
2019-05-06T03:17:37.695Z,5.94
2019-05-06T03:18:37.625Z,5.9
2019-05-06T03:19:39.118Z,5.86
2019-05-06T03:20:38.385Z,5.83
2019-05-06T03:21:39.642Z,5.83
2019-05-06T03:24:38.013Z,5.79
2019-05-06T03:25:38.047Z,5.82
2019-05-06T03:26:53.317Z,5.75
2019-05-06T03:27:37.715Z,5.79
2019-05-06T03:28:38.267Z,5.78
2019-05-06T03:29:38.240Z,5.75
2019-05-06T03:31:46.042Z,5.72
2019-05-06T03:33:54.875Z,5.68
2019-05-06T03:36:00.137Z,5.67
2019-05-06T03:36:55.160Z,5.68
2019-05-06T03:37:38.337Z,5.58
2019-05-06T03:38:38.410Z,5.65
2019-05-06T03:39:38.664Z,5.6
2019-05-06T03:40:47.449Z,5.68
2019-05-06T03:41:38.672Z,5.56
2019-05-06T03:42:38.332Z,5.58
2019-05-06T03:43:53.921Z,5.63
2019-05-06T03:44:37.959Z,5.54
2019-05-06T03:45:38.493Z,5.51
2019-05-06T03:46:38.522Z,5.51
2019-05-06T03:47:39.471Z,5.54
2019-05-06T03:48:38.166Z,5.53
2019-05-06T03:49:54.466Z,5.54
2019-05-06T03:50:38.510Z,5.53
2019-05-06T03:51:39.195Z,5.56
2019-05-06T03:52:39.086Z,5.51
2019-05-06T03:53:38.224Z,5.54
2019-05-06T03:54:39.158Z,5.57
2019-05-06T03:55:39.075Z,5.53
2019-05-06T03:56:38.863Z,5.51
2019-05-06T03:57:42.742Z,5.58
2019-05-06T03:58:39.476Z,5.53
2019-05-06T03:59:38.499Z,5.57
2019-05-06T04:01:38.508Z,5.58
2019-05-06T04:02:53.699Z,5.6
2019-05-06T04:03:58.874Z,5.6
2019-05-06T04:04:38.142Z,5.6
2019-05-06T04:05:38.307Z,5.64
2019-05-06T04:06:53.677Z,5.63
2019-05-06T04:07:38.897Z,5.63
2019-05-06T04:08:39.150Z,5.78
2019-05-06T04:09:43.927Z,5.64
2019-05-06T04:10:43.486Z,5.63
2019-05-06T04:11:43.196Z,5.74
2019-05-06T04:12:38.004Z,5.72
2019-05-06T04:13:38.047Z,5.76
2019-05-06T04:15:53.926Z,5.83
2019-05-06T04:16:38.376Z,5.81
2019-05-06T04:17:37.810Z,5.85
2019-05-06T04:20:53.850Z,5.79
2019-05-06T04:21:37.834Z,5.89
2019-05-06T04:22:38.110Z,5.93
2019-05-06T04:23:53.505Z,5.91
2019-05-06T04:24:38.702Z,5.89
2019-05-06T04:25:38.792Z,5.86
2019-05-06T04:26:37.875Z,5.96
2019-05-06T04:28:39.051Z,6
2019-05-06T04:30:54.761Z,5.99
2019-05-06T04:31:53.914Z,6.03
2019-05-06T04:33:38.095Z,6.11
2019-05-06T04:34:38.133Z,6.12
2019-05-06T04:35:38.725Z,6.17
2019-05-06T04:36:38.576Z,6.28
2019-05-06T04:37:38.732Z,6.21
2019-05-06T04:38:38.503Z,6.31
2019-05-06T04:39:38.068Z,6.36
2019-05-06T04:40:37.779Z,6.28
2019-05-06T04:41:39.050Z,6.33
2019-05-06T04:42:39.330Z,6.44
2019-05-06T04:43:38.573Z,6.41
2019-05-06T04:44:37.859Z,6.38
2019-05-06T04:45:54.154Z,6.49
2019-05-06T04:46:39.785Z,6.55
2019-05-06T04:47:53.665Z,6.67
2019-05-06T04:48:38.201Z,6.76
2019-05-06T04:49:38.091Z,6.85
2019-05-06T04:50:37.858Z,7.58
2019-05-06T04:51:43.042Z,8.41
2019-05-06T04:52:39.181Z,9.23
2019-05-06T04:53:38.828Z,10.09
2019-05-06T04:54:53.469Z,11.06
2019-05-06T04:55:38.545Z,11.27
2019-05-06T04:56:38.262Z,11.19
2019-05-06T04:57:38.589Z,11.8
2019-05-06T04:58:53.927Z,12.46
2019-05-06T04:59:37.880Z,12.92
2019-05-06T05:00:38.083Z,13.57
2019-05-06T05:01:39.133Z,14.27
2019-05-06T05:02:38.681Z,14.64
2019-05-06T05:04:43.212Z,15.34
2019-05-06T05:05:38.804Z,15.67
2019-05-06T05:06:53.465Z,15.97
2019-05-06T05:07:38.841Z,16.23
2019-05-06T05:08:38.856Z,16.08
2019-05-06T05:09:38.884Z,16.11
2019-05-06T05:11:38.687Z,16.53
2019-05-06T05:12:38.942Z,16.7
2019-05-06T05:13:38.974Z,16.5
2019-05-06T05:14:38.987Z,16.64
2019-05-06T05:15:39.028Z,16.39
2019-05-06T05:16:39.038Z,16.05
2019-05-06T05:17:53.735Z,16.94
2019-05-06T05:18:39.105Z,17.28
2019-05-06T05:19:39.137Z,17.03
2019-05-06T05:20:49.092Z,17.19
2019-05-06T05:21:39.166Z,17.38
2019-05-06T05:22:39.191Z,16.71
2019-05-06T05:23:53.880Z,16.7
2019-05-06T05:24:39.243Z,17.19
2019-05-06T05:25:39.267Z,17.77
2019-05-06T05:26:39.393Z,17.84
2019-05-06T05:27:39.319Z,17.64
2019-05-06T05:28:39.343Z,17.82
2019-05-06T05:29:39.382Z,18.66
2019-05-06T05:30:39.399Z,19.55
2019-05-06T05:31:39.464Z,19.4
2019-05-06T05:32:39.455Z,18.72
2019-05-06T05:34:46.060Z,17.56
2019-05-06T05:35:39.535Z,17.41
2019-05-06T05:36:39.567Z,17.31
2019-05-06T05:37:41.453Z,17.96
2019-05-06T05:38:39.616Z,18.58
2019-05-06T05:39:39.644Z,19.41
2019-05-06T05:40:39.671Z,19.43
2019-05-06T05:41:39.700Z,19.37
2019-05-06T05:42:54.651Z,19.55
2019-05-06T05:43:42.438Z,19.73
2019-05-06T05:44:39.783Z,20.2
2019-05-06T05:45:39.815Z,19.36
2019-05-06T05:46:39.849Z,19.63
2019-05-06T05:47:39.883Z,19.68
2019-05-06T05:48:42.203Z,19.73
2019-05-06T05:49:41.942Z,19.87
2019-05-06T05:50:41.905Z,20.18
2019-05-06T05:51:42.439Z,20.2
2019-05-06T05:52:54.681Z,20.73
2019-05-06T05:53:40.053Z,21.09
2019-05-06T05:54:42.190Z,21.31
2019-05-06T05:56:40.132Z,21.35
2019-05-06T05:57:40.157Z,20.39
2019-05-06T05:59:42.165Z,19.55
2019-05-06T06:00:42.379Z,19.77
2019-05-06T06:02:43.305Z,20.48
2019-05-06T06:04:57.416Z,20.94
2019-05-06T06:05:42.555Z,20.72
2019-05-06T06:06:42.288Z,19.41
2019-05-06T06:07:42.207Z,19.44
2019-05-06T06:08:43.057Z,19.46
2019-05-06T06:09:55.187Z,19.08
2019-05-06T06:10:42.532Z,19.22
2019-05-06T06:11:42.072Z,19.36
2019-05-06T06:12:42.793Z,19.88
2019-05-06T06:13:43.151Z,20.62
2019-05-06T06:14:58.312Z,20.97
2019-05-06T06:15:42.301Z,21.22
2019-05-06T06:16:42.254Z,21.38
2019-05-06T06:17:42.554Z,21.21
2019-05-06T06:18:42.972Z,20.62
2019-05-06T06:19:42.420Z,20.69
2019-05-06T06:20:42.383Z,21.38
2019-05-06T06:21:42.631Z,21.35
2019-05-06T06:22:42.498Z,21.52
2019-05-06T06:23:41.944Z,21.83
2019-05-06T06:24:42.727Z,21.69
2019-05-06T06:25:42.342Z,21.69
2019-05-06T06:26:55.710Z,22.07
2019-05-06T06:27:42.035Z,22.35
2019-05-06T06:28:42.513Z,22.67
2019-05-06T06:29:41.789Z,22.57
2019-05-06T06:30:55.838Z,21.72
2019-05-06T06:31:42.758Z,21.58
2019-05-06T06:32:41.894Z,22.15
2019-05-06T06:33:42.737Z,21.32
2019-05-06T06:34:42.687Z,20.84
2019-05-06T06:35:42.601Z,20.08
2019-05-06T06:36:41.855Z,20.06
2019-05-06T06:37:42.606Z,20.58
2019-05-06T06:38:42.892Z,20.76
2019-05-06T06:39:42.253Z,21.04
2019-05-06T06:40:42.504Z,21.03
2019-05-06T06:41:42.336Z,21.5
2019-05-06T06:42:42.718Z,21.56
2019-05-06T06:43:42.090Z,21.68
2019-05-06T06:44:42.375Z,21.35
2019-05-06T06:45:56.326Z,21.03
2019-05-06T06:46:42.892Z,21.12
2019-05-06T06:47:42.479Z,21.14
2019-05-06T06:48:42.991Z,20.67
2019-05-06T06:49:42.374Z,20.89
2019-05-06T06:50:42.611Z,21.47
2019-05-06T06:51:42.438Z,21.68
2019-05-06T06:52:42.226Z,21.69
2019-05-06T06:53:42.146Z,20.95
2019-05-06T06:54:43.763Z,21.19
2019-05-06T06:56:42.343Z,21.35
2019-05-06T06:57:56.705Z,20.01
2019-05-06T06:58:44.140Z,19.37
2019-05-06T06:59:42.646Z,19.13
2019-05-06T07:01:43.941Z,19.11
2019-05-06T07:02:43.209Z,19.16
2019-05-06T07:03:43.127Z,20.42
2019-05-06T07:04:43.080Z,20.64
2019-05-06T07:05:44.658Z,19.78
2019-05-06T07:06:42.388Z,19.56
2019-05-06T07:07:52.801Z,19.11
2019-05-06T07:08:45.004Z,17.51
2019-05-06T07:09:44.331Z,17.38
2019-05-06T07:10:43.013Z,18.17
2019-05-06T07:11:42.888Z,18.23
2019-05-06T07:12:45.024Z,17.9
2019-05-06T07:13:44.361Z,18.44
2019-05-06T07:14:42.895Z,18.6
2019-05-06T07:15:45.038Z,18.63
2019-05-06T07:16:45.367Z,18.41
2019-05-06T07:17:57.315Z,17.62
2019-05-06T07:18:45.072Z,17.68
2019-05-06T07:19:44.673Z,17.51
2019-05-06T07:20:45.349Z,17.21
2019-05-06T07:21:46.054Z,16.66
2019-05-06T07:22:44.830Z,16.58
2019-05-06T07:23:44.526Z,16.91
2019-05-06T07:25:45.268Z,17.84
2019-05-06T07:26:44.907Z,18.45
2019-05-06T07:27:44.505Z,18.14
2019-05-06T07:28:57.621Z,18.1
2019-05-06T07:29:52.214Z,17.74
2019-05-06T07:30:44.444Z,17.82
2019-05-06T07:31:45.147Z,18.58
2019-05-06T07:32:44.914Z,18.42
2019-05-06T07:33:57.759Z,17.97
2019-05-06T07:34:44.486Z,17.81
2019-05-06T07:35:46.423Z,17.9
2019-05-06T07:36:45.443Z,18.69
2019-05-06T07:37:44.821Z,18.88
2019-05-06T07:38:44.906Z,19.56
2019-05-06T07:39:45.595Z,19.81
2019-05-06T07:40:44.414Z,20.43
2019-05-06T07:41:48.242Z,20.7
2019-05-06T07:42:45.560Z,21.25
2019-05-06T07:44:44.788Z,20.69
2019-05-06T07:45:44.803Z,19.78
2019-05-06T07:46:58.125Z,19.14
2019-05-06T07:47:45.135Z,18.58
2019-05-06T07:48:45.334Z,18.82
2019-05-06T07:49:58.218Z,19.29
2019-05-06T07:50:44.952Z,19.25
2019-05-06T07:51:44.435Z,19.32
2019-05-06T07:52:44.583Z,19.31
2019-05-06T07:53:45.160Z,19.59
2019-05-06T07:54:44.915Z,20.33
2019-05-06T07:55:44.921Z,21.35
2019-05-06T07:56:45.294Z,21.54
2019-05-06T07:57:44.837Z,20.16
2019-05-06T07:58:45.935Z,19.62
2019-05-06T07:59:58.503Z,18.3
2019-05-06T08:01:46.483Z,17.58
2019-05-06T08:03:45.218Z,18.7
2019-05-06T08:04:44.609Z,18.7
2019-05-06T08:06:02.628Z,19.44
2019-05-06T08:06:45.151Z,19.32
2019-05-06T08:07:44.741Z,19.19
2019-05-06T08:08:45.803Z,18.87
2019-05-06T08:09:44.769Z,18.44
2019-05-06T08:10:44.737Z,19.19
2019-05-06T08:11:44.733Z,19.66
2019-05-06T08:12:45.304Z,19.58
2019-05-06T08:13:45.941Z,19.39
2019-05-06T08:14:45.587Z,19.73
2019-05-06T08:15:46.804Z,20.11
2019-05-06T08:16:48.986Z,20.88
2019-05-06T08:17:47.059Z,20.74
2019-05-06T08:18:45.081Z,20.42
2019-05-06T08:19:44.747Z,20.36
2019-05-06T08:20:59.209Z,19.59
2019-05-06T08:21:45.232Z,19.39
2019-05-06T08:22:44.726Z,18.73
2019-05-06T08:23:45.283Z,18.57
2019-05-06T08:24:44.724Z,18.05
2019-05-06T08:25:47.240Z,17.78
2019-05-06T08:26:45.269Z,17.51
2019-05-06T08:27:45.081Z,17.21
2019-05-06T08:28:48.668Z,17.08
2019-05-06T08:29:47.177Z,17.03
2019-05-06T08:30:45.620Z,16.64
2019-05-06T08:31:45.525Z,17.33
2019-05-06T08:32:47.251Z,18.29
2019-05-06T08:33:45.688Z,18.03
2019-05-06T08:34:46.622Z,18.41
2019-05-06T08:35:47.261Z,18.11
2019-05-06T08:36:47.371Z,17.21
2019-05-06T08:37:47.379Z,16.64
2019-05-06T08:38:46.926Z,16.25
2019-05-06T08:40:45.631Z,16.41
2019-05-06T08:41:47.099Z,17.54
2019-05-06T08:43:02.297Z,18.51
2019-05-06T08:43:46.937Z,18.85
2019-05-06T08:44:47.433Z,19.61
2019-05-06T08:46:03.184Z,19.32
2019-05-06T08:46:47.907Z,19.04
2019-05-06T08:47:47.409Z,18.73
2019-05-06T08:48:45.336Z,18.07
2019-05-06T08:49:49.292Z,17.16
2019-05-06T08:51:02.686Z,17.26
2019-05-06T08:52:59.953Z,18.42
2019-05-06T08:54:45.827Z,18.65
2019-05-06T08:55:46.925Z,18.84
2019-05-06T08:56:47.486Z,19.22
2019-05-06T08:57:46.855Z,19.77
2019-05-06T08:58:47.911Z,20.18
2019-05-06T08:59:47.260Z,20.72
2019-05-06T09:01:47.258Z,21.46
2019-05-06T09:02:48.677Z,20.88
2019-05-06T09:03:47.201Z,20.03
2019-05-06T09:04:47.538Z,19.63
2019-05-06T09:05:47.146Z,18.8
2019-05-06T09:07:03.005Z,18.08
2019-05-06T09:07:47.741Z,17.44
2019-05-06T09:09:02.338Z,16.61
2019-05-06T09:09:46.961Z,16.76
2019-05-06T09:10:47.721Z,16.35
2019-05-06T09:11:48.034Z,16.56
2019-05-06T09:12:47.334Z,16.45
2019-05-06T09:13:47.699Z,16.48
2019-05-06T09:14:47.943Z,16.53
2019-05-06T09:15:47.717Z,16.41
2019-05-06T09:17:03.468Z,15.76
2019-05-06T09:17:46.884Z,15.82
2019-05-06T09:18:47.487Z,15.71
2019-05-06T09:20:02.744Z,15.67
2019-05-06T09:20:48.054Z,15.53
2019-05-06T09:21:53.051Z,15.41
2019-05-06T09:22:47.799Z,15.53
2019-05-06T09:23:47.250Z,16
2019-05-06T09:25:02.407Z,16.39
2019-05-06T09:25:47.313Z,16.45
2019-05-06T09:26:47.978Z,16.27
2019-05-06T09:27:47.019Z,16.28
2019-05-06T09:28:47.315Z,15.83
2019-05-06T09:29:47.876Z,15.68
2019-05-06T09:30:48.105Z,15.49
2019-05-06T09:31:47.616Z,15.32
2019-05-06T09:32:47.768Z,15.49
2019-05-06T09:34:02.687Z,15.6
2019-05-06T09:34:47.993Z,15.56
2019-05-06T09:35:47.110Z,15.53
2019-05-06T09:36:57.379Z,15.84
2019-05-06T09:37:47.857Z,16.11
2019-05-06T09:38:47.313Z,16.48
2019-05-06T09:39:48.020Z,16.66
2019-05-06T09:41:04.944Z,16.35
2019-05-06T09:41:57.975Z,16.28
2019-05-06T09:42:47.423Z,16.14
2019-05-06T09:43:48.194Z,15.96
2019-05-06T09:44:50.370Z,15.67
2019-05-06T09:45:47.450Z,15.75
2019-05-06T09:46:47.603Z,15.69
2019-05-06T09:47:47.449Z,15.69
2019-05-06T09:48:47.326Z,15.6
2019-05-06T09:49:47.433Z,15.28
2019-05-06T09:50:53.511Z,15.57
2019-05-06T09:51:47.373Z,16.45
2019-05-06T09:52:47.573Z,16.98
2019-05-06T09:53:48.088Z,17.41
2019-05-06T09:54:47.646Z,17.22
2019-05-06T09:56:03.301Z,17.3
2019-05-06T09:56:47.601Z,17.18
2019-05-06T09:57:47.462Z,16.93
2019-05-06T09:58:47.869Z,16.71
2019-05-06T09:59:47.046Z,16.78
2019-05-06T10:01:02.729Z,16.56
2019-05-06T10:01:48.607Z,16.61
2019-05-06T10:02:49.523Z,16.67
2019-05-06T10:03:47.647Z,16.66
2019-05-06T10:04:47.645Z,16.76
2019-05-06T10:05:47.440Z,17.31
2019-05-06T10:07:02.722Z,17.54
2019-05-06T10:08:03.222Z,17.49
2019-05-06T10:08:47.189Z,17.23
2019-05-06T10:09:48.281Z,16.96
2019-05-06T10:11:03.102Z,16.76
2019-05-06T10:11:47.263Z,16.64
2019-05-06T10:12:47.278Z,16.43
2019-05-06T10:13:47.968Z,16.07
2019-05-06T10:14:48.231Z,15.74
2019-05-06T10:15:47.755Z,15.53
2019-05-06T10:16:48.008Z,15.41
2019-05-06T10:17:47.784Z,15.32
2019-05-06T10:18:47.423Z,15.44
2019-05-06T10:20:47.965Z,15.2
2019-05-06T10:21:47.675Z,15.41
2019-05-06T10:23:02.862Z,15.41
2019-05-06T10:23:47.538Z,15.49
2019-05-06T10:24:48.177Z,15.87
2019-05-06T10:25:48.567Z,16.39
2019-05-06T10:26:48.095Z,16.42
2019-05-06T10:28:05.137Z,16.89
2019-05-06T10:28:47.680Z,17.4
2019-05-06T10:29:48.107Z,17.86
2019-05-06T10:31:47.998Z,17.71
2019-05-06T10:32:47.757Z,17.52
2019-05-06T10:33:47.783Z,17.55
2019-05-06T10:34:48.377Z,17.07
2019-05-06T10:36:47.858Z,16.66
2019-05-06T10:37:47.887Z,16.45
2019-05-06T10:38:48.000Z,15.49
2019-05-06T10:39:47.923Z,15.34
2019-05-06T10:41:09.554Z,15.09
2019-05-06T10:41:47.969Z,15.31
2019-05-06T10:42:47.997Z,15.54
2019-05-06T10:44:03.068Z,15.69
2019-05-06T10:44:48.045Z,15.64
2019-05-06T10:45:48.066Z,15.59
2019-05-06T10:46:48.090Z,15.76
2019-05-06T10:47:48.127Z,16
2019-05-06T10:49:02.830Z,16.09
2019-05-06T10:49:48.174Z,16.34
2019-05-06T10:50:48.192Z,16.67
2019-05-06T10:51:48.238Z,16.82
2019-05-06T10:52:48.230Z,17.26
2019-05-06T10:54:48.279Z,17.99
2019-05-06T10:55:48.308Z,18.42
2019-05-06T10:57:02.122Z,18.36
2019-05-06T10:57:48.351Z,18.1
2019-05-06T10:58:48.874Z,17.9
2019-05-06T11:00:48.427Z,17.72
2019-05-06T11:01:48.444Z,17.79
2019-05-06T11:02:48.584Z,17.62
2019-05-06T11:03:48.492Z,17.31
2019-05-06T11:04:48.516Z,17.23
2019-05-06T11:06:03.212Z,16.71
2019-05-06T11:06:48.565Z,16.81
2019-05-06T11:07:48.615Z,16.75
2019-05-06T11:08:48.612Z,16.64
2019-05-06T11:09:48.642Z,16.85
2019-05-06T11:10:50.322Z,16.85
2019-05-06T11:11:48.687Z,16.17
2019-05-06T11:12:48.706Z,15.96
2019-05-06T11:13:48.738Z,16.28
2019-05-06T11:14:48.753Z,16.24
2019-05-06T11:16:05.745Z,15.8
2019-05-06T11:16:48.801Z,15.89
2019-05-06T11:17:48.826Z,15.96
2019-05-06T11:18:48.602Z,16.12
2019-05-06T11:19:48.870Z,16.11
2019-05-06T11:20:48.829Z,15.86
2019-05-06T11:21:49.898Z,15.65
2019-05-06T11:22:48.953Z,15.89
2019-05-06T11:23:48.965Z,15.71
2019-05-06T11:25:03.657Z,15.71
2019-05-06T11:25:49.021Z,15.8
2019-05-06T11:26:49.039Z,16
2019-05-06T11:27:52.444Z,16.08
2019-05-06T11:28:49.083Z,16.3
2019-05-06T11:29:49.111Z,16.48
2019-05-06T11:31:05.017Z,16.53
2019-05-06T11:31:49.156Z,16.7
2019-05-06T11:32:49.447Z,16.82
2019-05-06T11:33:49.205Z,16.61
2019-05-06T11:34:49.228Z,16.48
2019-05-06T11:35:49.270Z,16.64
2019-05-06T11:37:03.941Z,16.89
2019-05-06T11:37:56.801Z,16.96
2019-05-06T11:38:52.234Z,16.7
2019-05-06T11:39:49.342Z,16.94
2019-05-06T11:40:49.369Z,16.79
2019-05-06T11:42:33.348Z,17.22
2019-05-06T11:42:49.432Z,17.14
2019-05-06T11:43:49.440Z,16.85
2019-05-06T11:44:49.473Z,16.73
2019-05-06T11:45:49.492Z,16.49
2019-05-06T11:46:49.509Z,16.11
2019-05-06T11:47:49.529Z,15.9
2019-05-06T11:48:49.552Z,15.82
2019-05-06T11:50:49.605Z,15.82
2019-05-06T11:51:49.623Z,15.78
2019-05-06T11:53:53.678Z,15.83
2019-05-06T11:54:49.700Z,15.9
2019-05-06T11:56:04.383Z,15.69
2019-05-06T11:57:02.780Z,15.89
2019-05-06T11:57:49.764Z,16.04
2019-05-06T11:58:50.105Z,16.08
2019-05-06T11:59:50.590Z,16.28
2019-05-06T12:00:49.844Z,16.34
2019-05-06T12:01:49.868Z,16.41
2019-05-06T12:03:04.844Z,16.34
2019-05-06T12:03:52.019Z,16.3
2019-05-06T12:04:49.927Z,16.3
2019-05-06T12:05:49.946Z,16.04
2019-05-06T12:08:13.565Z,16.56
2019-05-06T12:08:52.253Z,16.53
2019-05-06T12:09:50.061Z,16.85
2019-05-06T12:10:51.979Z,16.93
2019-05-06T12:11:52.542Z,16.71
2019-05-06T12:12:50.110Z,16.75
2019-05-06T12:13:50.157Z,16.86
2019-05-06T12:14:52.465Z,16.78
2019-05-06T12:15:52.068Z,16.88
2019-05-06T12:16:50.025Z,16.81
2019-05-06T12:17:50.236Z,16.81
2019-05-06T12:19:05.310Z,16.67
2019-05-06T12:19:52.311Z,16.91
2019-05-06T12:20:52.675Z,16.85
2019-05-06T12:21:50.331Z,16.89
2019-05-06T12:22:50.349Z,16.93
2019-05-06T12:24:52.428Z,16.71
2019-05-06T12:25:52.884Z,16.46
2019-05-06T12:26:52.160Z,16.5
2019-05-06T12:27:52.576Z,16.33
2019-05-06T12:28:52.900Z,16.31
2019-05-06T12:29:52.749Z,16.53
2019-05-06T12:30:52.376Z,16.76
2019-05-06T12:32:05.218Z,16.39
2019-05-06T12:32:52.634Z,16.67
2019-05-06T12:33:52.942Z,16.97
2019-05-06T12:35:05.990Z,17.06
2019-05-06T12:35:52.030Z,16.91
2019-05-06T12:36:52.709Z,17.08
2019-05-06T12:37:52.952Z,17.08
2019-05-06T12:38:52.424Z,16.81
2019-05-06T12:39:53.148Z,16.83
2019-05-06T12:40:52.871Z,16.89
2019-05-06T12:41:53.246Z,16.93
2019-05-06T12:42:53.215Z,16.82
2019-05-06T12:45:52.996Z,16.75
2019-05-06T12:46:52.874Z,17.04
2019-05-06T12:47:53.198Z,17.14
2019-05-06T12:48:52.112Z,16.93
2019-05-06T12:49:53.275Z,16.85
2019-05-06T12:51:05.662Z,17.08
2019-05-06T12:51:51.021Z,17.15
2019-05-06T12:52:52.520Z,17.19
2019-05-06T12:53:52.851Z,17.28
2019-05-06T12:55:52.005Z,17.28
2019-05-06T12:56:51.845Z,17.54
2019-05-06T12:57:52.994Z,17.26
2019-05-06T12:59:52.978Z,17.18
2019-05-06T13:00:53.916Z,17.38
2019-05-06T13:01:53.969Z,17.34
2019-05-06T13:02:53.031Z,17.26
2019-05-06T13:03:52.561Z,17.38
2019-05-06T13:05:05.992Z,17.15
2019-05-06T13:06:12.715Z,16.98
2019-05-06T13:06:52.166Z,17
2019-05-06T13:09:07.286Z,16.64
2019-05-06T13:09:52.840Z,16.7
2019-05-06T13:10:52.559Z,16.81
2019-05-06T13:11:52.333Z,16.93
2019-05-06T13:12:53.990Z,16.97
2019-05-06T13:14:06.667Z,16.78
2019-05-06T13:15:52.731Z,16.82
2019-05-06T13:16:53.156Z,16.73
2019-05-06T13:17:53.103Z,16.68
2019-05-06T13:18:56.725Z,16.94
2019-05-06T13:19:52.308Z,17.08
2019-05-06T13:20:55.919Z,17.08
2019-05-06T13:21:51.718Z,16.93
2019-05-06T13:22:53.338Z,16.88
2019-05-06T13:23:51.777Z,16.81
2019-05-06T13:24:52.086Z,16.83
2019-05-06T13:25:52.709Z,16.75
2019-05-06T13:26:52.732Z,16.5
2019-05-06T13:27:52.758Z,16.21
2019-05-06T13:28:53.142Z,16.28
2019-05-06T13:29:51.908Z,16
2019-05-06T13:30:53.119Z,15.84
2019-05-06T13:31:52.957Z,16
2019-05-06T13:32:52.458Z,16.2
2019-05-06T13:33:54.421Z,16.08
2019-05-06T13:34:52.584Z,16.17
2019-05-06T13:35:52.577Z,16.11
2019-05-06T13:36:53.208Z,16.11
2019-05-06T13:38:06.754Z,16.21
2019-05-06T13:39:09.413Z,16.24
2019-05-06T13:39:52.880Z,16.12
2019-05-06T13:41:00.127Z,16.23
2019-05-06T13:41:52.810Z,16.3
2019-05-06T13:42:52.786Z,16.08
2019-05-06T13:43:54.033Z,15.82
2019-05-06T13:44:52.251Z,15.89
2019-05-06T13:45:54.971Z,15.96
2019-05-06T13:46:53.212Z,16.02
2019-05-06T13:47:54.775Z,15.82
2019-05-06T13:49:07.008Z,15.94
2019-05-06T13:49:54.657Z,16.14
2019-05-06T13:50:52.694Z,16.21
2019-05-06T13:51:54.685Z,16.25
2019-05-06T13:53:12.262Z,16.27
2019-05-06T13:54:07.133Z,16.2
2019-05-06T13:54:55.367Z,15.82
2019-05-06T13:55:54.988Z,15.84
2019-05-06T13:56:54.632Z,15.83
2019-05-06T13:57:54.720Z,16
2019-05-06T13:58:54.897Z,16.21